Time;durP1;ratioP1;P1;durP2;ratioP2;P2;SDS_P1;SDS_P2;PMS_P1;PMS_P2;Temp;Humidity;BMP_temperature;BMP_pressure;BME280_temperature;BME280_humidity;BME280_pressure;Samples;Min_cycle;Max_cycle;Signal;HPM_P1;HPM_P2
2022/12/30 00:01:57;;;;;;;4.68;2.35;;;10.50;99.90;;;;;;5086140;28;20029;-61
2022/12/30 00:04:22;;;;;;;4.20;1.75;;;10.50;99.90;;;;;;5084968;28;20132;-61
2022/12/30 00:06:48;;;;;;;7.25;2.10;;;10.50;99.90;;;;;;5086047;28;20032;-60
2022/12/30 00:09:13;;;;;;;6.28;1.73;;;10.40;99.90;;;;;;5085804;28;20040;-62
2022/12/30 00:11:39;;;;;;;4.38;1.85;;;10.40;99.90;;;;;;5085884;28;20108;-61
2022/12/30 00:33:54;;;;;;;9.68;2.80;;;10.40;99.90;;;;;;5085591;28;20046;-61
2022/12/30 00:36:20;;;;;;;3.78;2.28;;;10.40;99.90;;;;;;5084031;28;20027;-61
2022/12/30 00:38:46;;;;;;;4.78;2.20;;;10.50;99.90;;;;;;5083981;28;20111;-61
2022/12/30 00:43:55;;;;;;;5.18;2.65;;;10.40;99.90;;;;;;5083864;28;20132;-61
2022/12/30 00:46:23;;;;;;;5.60;2.70;;;10.40;99.90;;;;;;5085362;28;20032;-61
2022/12/30 00:57:01;;;;;;;3.80;2.60;;;10.40;99.90;;;;;;5085228;28;20036;-61
2022/12/30 00:59:27;;;;;;;4.95;2.97;;;10.40;99.90;;;;;;5085264;28;20052;-61
2022/12/30 01:01:52;;;;;;;5.60;2.92;;;10.40;99.90;;;;;;5083960;28;20024;-61
2022/12/30 01:04:18;;;;;;;5.85;2.70;;;10.40;99.90;;;;;;5083891;28;20033;-60
2022/12/30 01:06:43;;;;;;;3.53;2.60;;;10.40;99.90;;;;;;5085033;28;20032;-61
2022/12/30 01:09:09;;;;;;;4.82;2.42;;;10.40;99.90;;;;;;5083566;28;20047;-61
2022/12/30 01:11:34;;;;;;;2.83;1.98;;;10.40;99.90;;;;;;5066700;28;20503;-61
2022/12/30 01:14:00;;;;;;;4.00;2.25;;;10.40;99.90;;;;;;5083653;28;20107;-61
2022/12/30 01:16:26;;;;;;;2.90;2.25;;;10.40;99.90;;;;;;5083656;28;20028;-60
2022/12/30 01:18:51;;;;;;;4.45;2.30;;;10.40;99.90;;;;;;5083593;28;20044;-60
2022/12/30 01:21:17;;;;;;;4.28;2.03;;;10.40;99.90;;;;;;5084840;28;20028;-61
2022/12/30 01:23:43;;;;;;;3.95;2.33;;;10.40;99.90;;;;;;5084926;28;20059;-60
2022/12/30 01:26:09;;;;;;;4.05;1.80;;;10.40;99.90;;;;;;5066779;28;20372;-61
2022/12/30 01:28:35;;;;;;;5.43;3.17;;;10.40;99.90;;;;;;5084883;28;20111;-61
2022/12/30 01:31:03;;;;;;;5.10;2.42;;;10.30;99.90;;;;;;5083670;28;20464;-61
2022/12/30 01:33:28;;;;;;;5.35;2.85;;;10.30;99.90;;;;;;5083591;28;20036;-60
2022/12/30 01:35:54;;;;;;;5.90;3.05;;;10.40;99.90;;;;;;5083654;28;20031;-61
2022/12/30 01:38:19;;;;;;;5.97;2.80;;;10.40;99.90;;;;;;5083487;28;20025;-60
2022/12/30 01:40:45;;;;;;;8.85;2.67;;;10.30;99.90;;;;;;5084644;28;20460;-60
2022/12/30 01:43:15;;;;;;;4.63;3.05;;;10.30;99.90;;;;;;5083455;28;20116;-60
2022/12/30 01:45:45;;;;;;;5.82;2.97;;;10.30;99.90;;;;;;5084855;28;20024;-60
2022/12/30 01:48:25;;;;;;;5.00;2.63;;;10.30;99.90;;;;;;5083250;28;20031;-60
2022/12/30 01:50:57;;;;;;;4.63;2.80;;;10.30;99.90;;;;;;5083140;28;20144;-60
2022/12/30 01:53:32;;;;;;;7.47;3.20;;;10.30;99.90;;;;;;5083263;28;20024;-61
2022/12/30 01:55:58;;;;;;;4.78;3.00;;;10.30;99.90;;;;;;5083358;28;20040;-60
2022/12/30 01:59:00;;;;;;;8.55;3.30;;;10.30;99.90;;;;;;5083240;28;20020;-60
2022/12/30 02:01:26;;;;;;;3.33;2.42;;;10.30;99.90;;;;;;5078753;28;20091;-60
2022/12/30 02:03:56;;;;;;;5.13;2.40;;;10.30;99.90;;;;;;5087016;28;20048;-60
2022/12/30 02:06:24;;;;;;;6.53;2.72;;;10.30;99.90;;;;;;5086955;28;20043;-61
2022/12/30 02:08:49;;;;;;;5.40;2.70;;;10.30;99.90;;;;;;5086875;28;20029;-61
2022/12/30 02:11:15;;;;;;;4.15;2.53;;;10.30;99.90;;;;;;5086715;28;20064;-60
2022/12/30 02:13:40;;;;;;;5.68;2.70;;;10.30;99.90;;;;;;5086882;28;20438;-60
2022/12/30 02:16:30;;;;;;;4.43;2.78;;;10.30;99.90;;;;;;5088509;28;20025;-60
2022/12/30 02:19:33;;;;;;;4.63;2.55;;;10.30;99.90;;;;;;5086996;28;20025;-60
2022/12/30 02:22:38;;;;;;;4.10;2.33;;;10.30;99.90;;;;;;5087856;28;20029;-60
2022/12/30 02:25:23;;;;;;;4.07;2.33;;;10.30;99.90;;;;;;5072555;28;20078;-61
2022/12/30 02:27:57;;;;;;;4.13;2.60;;;10.30;99.90;;;;;;5087935;28;20051;-60
2022/12/30 02:30:42;;;;;;;5.03;3.45;;;10.30;99.90;;;;;;5086423;28;20102;-60
2022/12/30 02:33:51;;;;;;;4.40;3.58;;;10.20;99.90;;;;;;5072284;28;20097;-60
2022/12/30 02:36:41;;;;;;;5.45;3.70;;;10.20;99.90;;;;;;5068754;28;20377;-61
2022/12/30 02:39:13;;;;;;;5.38;3.78;;;10.30;99.90;;;;;;5088364;28;20084;-60
2022/12/30 02:44:38;;;;;;;5.53;3.47;;;10.20;99.90;;;;;;5086539;28;20052;-61
2022/12/30 02:47:07;;;;;;;4.93;3.53;;;10.20;99.90;;;;;;5086292;28;20032;-60
2022/12/30 02:49:34;;;;;;;5.30;3.08;;;10.20;99.90;;;;;;5086214;28;20036;-60
2022/12/30 02:52:14;;;;;;;5.30;3.20;;;10.20;99.90;;;;;;5085934;28;20028;-60
2022/12/30 02:54:45;;;;;;;4.82;3.50;;;10.20;99.90;;;;;;5086322;28;20106;-61
2022/12/30 02:57:22;;;;;;;4.38;3.40;;;10.20;99.90;;;;;;5085980;28;20074;-60
2022/12/30 03:05:54;;;;;;;4.20;2.67;;;10.20;99.90;;;;;;5086193;28;20058;-60
2022/12/30 03:08:38;;;;;;;4.18;3.08;;;10.20;99.90;;;;;;5087227;28;20036;-60
2022/12/30 03:11:12;;;;;;;4.57;3.30;;;10.20;99.90;;;;;;5084494;28;20341;-60
2022/12/30 03:13:54;;;;;;;4.57;3.00;;;10.20;99.90;;;;;;5085920;28;20059;-61
2022/12/30 03:16:33;;;;;;;4.05;2.95;;;10.20;99.90;;;;;;5085710;28;20016;-60
2022/12/30 03:19:00;;;;;;;4.22;3.08;;;10.20;99.90;;;;;;5085669;28;20033;-60
2022/12/30 03:21:25;;;;;;;4.82;3.00;;;10.20;99.90;;;;;;5085685;28;20076;-60
2022/12/30 03:29:23;;;;;;;4.75;4.10;;;10.10;99.90;;;;;;5085623;28;20526;-60
2022/12/30 03:31:50;;;;;;;5.68;4.00;;;10.20;99.90;;;;;;5085288;28;20409;-59
2022/12/30 03:34:15;;;;;;;4.60;3.88;;;10.10;99.90;;;;;;5085349;28;20113;-60
2022/12/30 03:36:46;;;;;;;7.13;4.40;;;10.10;99.90;;;;;;5085330;28;20025;-60
2022/12/30 03:39:23;;;;;;;6.13;3.35;;;10.10;99.90;;;;;;5085766;28;20118;-60
2022/12/30 03:41:49;;;;;;;8.52;3.75;;;10.10;99.90;;;;;;5085049;28;20120;-60
2022/12/30 03:44:16;;;;;;;5.30;3.25;;;10.10;99.90;;;;;;5084865;28;20068;-60
2022/12/30 03:46:43;;;;;;;4.00;3.35;;;10.10;99.90;;;;;;5085227;28;20033;-60
2022/12/30 03:49:09;;;;;;;4.60;3.13;;;10.10;99.90;;;;;;5085048;28;20037;-60
2022/12/30 03:51:34;;;;;;;5.47;3.55;;;10.10;99.90;;;;;;5084864;28;20024;-61
2022/12/30 03:54:00;;;;;;;3.75;3.03;;;10.10;99.90;;;;;;5086666;28;20048;-60
2022/12/30 03:56:25;;;;;;;3.67;3.00;;;10.10;99.90;;;;;;5084743;28;20021;-60
2022/12/30 03:58:51;;;;;;;3.67;2.80;;;10.00;99.90;;;;;;5084890;28;20033;-61
2022/12/30 04:01:16;;;;;;;4.95;3.30;;;10.00;99.90;;;;;;5084865;28;20056;-60
2022/12/30 04:03:42;;;;;;;4.00;3.20;;;10.00;99.90;;;;;;5084861;28;20036;-61
2022/12/30 04:06:07;;;;;;;4.50;3.17;;;10.00;99.90;;;;;;5084686;28;20063;-60
2022/12/30 04:08:33;;;;;;;5.20;2.88;;;10.00;99.90;;;;;;5084459;28;20039;-61
2022/12/30 04:10:58;;;;;;;3.45;2.78;;;10.00;99.90;;;;;;5085985;28;20021;-60
2022/12/30 04:13:24;;;;;;;5.72;2.92;;;10.00;99.90;;;;;;5084336;28;20025;-60
2022/12/30 04:15:50;;;;;;;2.92;2.60;;;10.00;99.90;;;;;;5086046;28;20372;-60
2022/12/30 04:18:15;;;;;;;3.47;2.78;;;10.00;99.90;;;;;;5084390;28;20388;-60
2022/12/30 04:20:41;;;;;;;5.80;2.67;;;10.00;99.90;;;;;;5084399;28;20051;-61
2022/12/30 04:23:07;;;;;;;4.13;2.72;;;9.90;99.90;;;;;;5083785;28;20036;-60
2022/12/30 04:25:32;;;;;;;4.72;2.60;;;10.00;99.90;;;;;;5085680;28;20044;-60
2022/12/30 04:27:58;;;;;;;3.15;2.20;;;9.90;99.90;;;;;;5083912;28;20044;-60
2022/12/30 04:30:23;;;;;;;3.22;2.53;;;9.90;99.90;;;;;;5085560;28;20040;-60
2022/12/30 04:32:49;;;;;;;3.28;2.70;;;9.90;99.90;;;;;;5084230;28;20017;-60
2022/12/30 04:35:14;;;;;;;3.53;2.53;;;9.90;99.90;;;;;;5085772;28;20032;-60
2022/12/30 04:37:40;;;;;;;2.80;2.13;;;9.90;99.90;;;;;;5084043;28;20456;-61
2022/12/30 04:40:06;;;;;;;3.38;2.53;;;9.90;99.90;;;;;;5083941;28;20082;-60
2022/12/30 04:42:31;;;;;;;3.38;2.30;;;9.90;99.90;;;;;;5083794;28;20036;-60
2022/12/30 04:44:57;;;;;;;2.42;2.10;;;9.80;99.90;;;;;;5085016;28;20040;-60
2022/12/30 04:47:22;;;;;;;3.42;2.20;;;9.80;99.90;;;;;;5067054;28;20032;-61
2022/12/30 04:49:48;;;;;;;3.00;2.22;;;9.80;99.90;;;;;;5084094;28;20119;-60
2022/12/30 04:52:14;;;;;;;4.45;2.38;;;9.80;99.90;;;;;;5085164;28;20035;-60
2022/12/30 04:54:39;;;;;;;2.75;2.25;;;9.80;99.90;;;;;;5085294;28;20033;-60
2022/12/30 04:57:05;;;;;;;3.72;2.33;;;9.80;99.90;;;;;;5085322;28;20053;-60
2022/12/30 04:59:30;;;;;;;3.97;2.30;;;9.70;99.90;;;;;;5083742;28;20108;-60
2022/12/30 05:01:56;;;;;;;2.33;2.05;;;9.70;99.90;;;;;;5083829;28;20041;-61
2022/12/30 05:04:21;;;;;;;3.13;2.25;;;9.70;99.90;;;;;;5085141;28;20064;-60
2022/12/30 05:06:47;;;;;;;2.88;2.10;;;9.70;99.90;;;;;;5066715;28;20050;-60
2022/12/30 05:09:12;;;;;;;4.82;2.40;;;9.70;99.90;;;;;;5083675;28;20456;-60
2022/12/30 05:11:38;;;;;;;2.28;1.95;;;9.70;99.90;;;;;;5083607;28;20036;-60
2022/12/30 05:14:03;;;;;;;3.25;2.50;;;9.70;99.90;;;;;;5083687;28;20039;-60
2022/12/30 05:16:29;;;;;;;2.40;2.00;;;9.70;99.90;;;;;;5083877;28;20038;-60
2022/12/30 05:18:55;;;;;;;1.90;1.58;;;9.70;99.90;;;;;;5083517;28;20318;-60
2022/12/30 05:21:20;;;;;;;2.63;1.90;;;9.70;99.90;;;;;;5083460;28;20048;-60
2022/12/30 05:26:30;;;;;;;2.75;2.08;;;9.60;99.90;;;;;;5085023;28;20139;-56
2022/12/30 05:28:55;;;;;;;3.08;1.90;;;9.70;99.90;;;;;;5083704;28;20416;-56
2022/12/30 05:31:21;;;;;;;2.95;1.60;;;9.60;99.90;;;;;;5083749;28;20415;-56
2022/12/30 05:33:46;;;;;;;2.25;1.77;;;9.60;99.90;;;;;;5083529;28;20357;-56
2022/12/30 05:36:12;;;;;;;3.53;2.30;;;9.60;99.90;;;;;;5088704;28;20021;-56
2022/12/30 05:38:38;;;;;;;3.67;2.33;;;9.60;99.90;;;;;;5087606;28;20043;-56
2022/12/30 05:41:03;;;;;;;2.38;1.73;;;9.50;99.90;;;;;;5087792;28;20020;-56
2022/12/30 05:43:29;;;;;;;4.00;1.90;;;9.50;99.90;;;;;;5087211;28;20101;-56
2022/12/30 05:45:54;;;;;;;2.58;1.80;;;9.50;99.90;;;;;;5087604;28;20029;-56
2022/12/30 05:48:20;;;;;;;2.42;1.73;;;9.50;99.90;;;;;;5087588;28;20029;-56
2022/12/30 05:50:49;;;;;;;2.25;1.83;;;9.50;99.90;;;;;;5088772;28;20514;-56
2022/12/30 05:53:14;;;;;;;2.25;1.80;;;9.50;99.90;;;;;;5087234;28;20058;-56
2022/12/30 05:55:40;;;;;;;2.00;1.80;;;9.50;99.90;;;;;;5087239;28;20050;-56
2022/12/30 05:58:06;;;;;;;4.43;1.70;;;9.40;99.90;;;;;;5087359;28;20021;-56
2022/12/30 06:00:31;;;;;;;2.08;1.88;;;9.40;99.90;;;;;;5087359;28;20037;-56
2022/12/30 06:02:57;;;;;;;3.85;1.73;;;9.40;99.90;;;;;;5089013;28;20137;-56
2022/12/30 06:05:22;;;;;;;1.88;1.38;;;9.40;99.90;;;;;;5088001;28;20028;-56
2022/12/30 06:07:48;;;;;;;2.13;1.60;;;9.40;99.90;;;;;;5088019;28;20024;-56
2022/12/30 06:10:14;;;;;;;2.92;1.80;;;9.40;99.90;;;;;;5088543;28;20074;-56
2022/12/30 06:12:39;;;;;;;2.25;1.85;;;9.40;99.90;;;;;;5087117;28;20037;-56
2022/12/30 06:15:05;;;;;;;3.88;2.30;;;9.40;99.90;;;;;;5087027;28;20453;-56
2022/12/30 06:17:31;;;;;;;2.20;1.70;;;9.40;99.90;;;;;;5087086;28;20093;-56
2022/12/30 06:19:56;;;;;;;2.08;1.50;;;9.30;99.90;;;;;;5088406;28;20025;-56
2022/12/30 06:22:22;;;;;;;1.92;1.50;;;9.30;99.90;;;;;;5086727;28;20505;-56
2022/12/30 06:24:47;;;;;;;2.50;1.80;;;9.30;99.90;;;;;;5088186;28;20437;-56
2022/12/30 06:27:13;;;;;;;2.10;1.63;;;9.30;99.90;;;;;;5086584;28;20039;-56
2022/12/30 06:29:38;;;;;;;2.28;1.67;;;9.30;99.90;;;;;;5088116;28;20433;-56
2022/12/30 06:32:04;;;;;;;2.05;1.60;;;9.30;99.90;;;;;;5087941;28;20508;-57
2022/12/30 06:34:30;;;;;;;1.90;1.50;;;9.20;99.90;;;;;;5087836;28;20029;-56
2022/12/30 06:36:55;;;;;;;1.67;1.48;;;9.20;99.90;;;;;;5086519;28;20032;-56
2022/12/30 06:39:21;;;;;;;1.73;1.20;;;9.20;99.90;;;;;;5086427;28;20047;-56
2022/12/30 06:41:47;;;;;;;4.90;1.70;;;9.10;99.90;;;;;;5086297;28;20441;-57
2022/12/30 06:44:12;;;;;;;2.38;1.63;;;9.10;99.90;;;;;;5086116;28;20090;-57
2022/12/30 06:46:38;;;;;;;1.70;1.33;;;9.10;99.90;;;;;;5086201;28;20452;-56
2022/12/30 06:49:03;;;;;;;2.20;1.45;;;9.10;99.90;;;;;;5086224;28;20373;-56
2022/12/30 06:51:29;;;;;;;2.72;1.63;;;9.10;99.90;;;;;;5086185;28;20021;-56
2022/12/30 06:53:54;;;;;;;1.75;1.40;;;9.10;99.90;;;;;;5086093;28;20047;-56
2022/12/30 06:56:20;;;;;;;1.70;1.60;;;9.10;99.90;;;;;;5087477;28;20047;-56
2022/12/30 06:58:45;;;;;;;1.65;1.50;;;9.10;99.90;;;;;;5069248;28;20162;-56
2022/12/30 07:01:11;;;;;;;1.98;1.27;;;9.00;99.90;;;;;;5086122;28;20060;-56
2022/12/30 07:03:36;;;;;;;1.75;1.60;;;9.00;99.90;;;;;;5087249;28;20128;-56
2022/12/30 07:06:02;;;;;;;1.75;1.40;;;9.00;99.90;;;;;;5085997;28;20049;-56
2022/12/30 07:08:27;;;;;;;2.45;1.73;;;9.00;99.90;;;;;;5087228;28;20101;-56
2022/12/30 07:10:54;;;;;;;1.92;1.48;;;9.00;99.90;;;;;;5085863;28;20518;-56
2022/12/30 07:13:19;;;;;;;2.47;1.70;;;9.00;99.90;;;;;;5086979;28;20029;-56
2022/12/30 07:15:45;;;;;;;1.80;1.45;;;9.00;99.90;;;;;;5085910;28;20035;-56
2022/12/30 07:18:11;;;;;;;2.28;1.25;;;8.90;99.90;;;;;;5085754;28;20021;-56
2022/12/30 07:20:37;;;;;;;2.17;1.52;;;8.90;99.90;;;;;;5068950;28;20024;-56
2022/12/30 07:23:03;;;;;;;1.70;1.40;;;8.90;99.90;;;;;;5086710;28;20029;-56
2022/12/30 07:25:29;;;;;;;2.13;1.48;;;8.90;99.90;;;;;;5085646;28;20081;-56
2022/12/30 07:27:59;;;;;;;3.25;1.55;;;8.90;99.90;;;;;;5085640;28;20035;-56
2022/12/30 07:30:25;;;;;;;4.25;1.40;;;9.00;99.90;;;;;;5068843;28;20033;-56
2022/12/30 07:32:50;;;;;;;2.03;1.30;;;9.00;99.90;;;;;;5068519;28;20028;-56
2022/12/30 07:35:16;;;;;;;1.30;1.00;;;8.90;99.90;;;;;;5085246;28;20039;-56
2022/12/30 07:37:41;;;;;;;2.25;1.42;;;9.00;99.90;;;;;;5085239;28;20036;-56
2022/12/30 07:40:07;;;;;;;1.75;1.33;;;9.00;99.90;;;;;;5086865;28;20040;-56
2022/12/30 07:42:33;;;;;;;1.33;1.15;;;9.00;99.90;;;;;;5086621;28;20104;-56
2022/12/30 07:44:59;;;;;;;1.85;1.45;;;9.00;99.90;;;;;;5086233;28;20415;-56
2022/12/30 07:47:24;;;;;;;1.70;1.50;;;8.90;99.90;;;;;;5086575;28;20024;-56
2022/12/30 07:49:50;;;;;;;1.67;1.30;;;8.90;99.90;;;;;;5068286;28;20394;-56
2022/12/30 07:52:15;;;;;;;1.98;1.58;;;8.90;99.90;;;;;;5086309;28;20043;-56
2022/12/30 07:54:41;;;;;;;1.38;1.27;;;8.90;99.90;;;;;;5086382;28;20035;-56
2022/12/30 07:57:06;;;;;;;1.48;1.27;;;8.90;99.90;;;;;;5084449;28;20017;-57
2022/12/30 07:59:35;;;;;;;2.08;1.30;;;8.90;99.90;;;;;;5084663;28;20447;-56
2022/12/30 08:02:00;;;;;;;2.42;1.48;;;8.90;99.90;;;;;;5084867;28;20048;-56
2022/12/30 08:04:26;;;;;;;1.92;1.33;;;8.90;99.90;;;;;;5085917;28;20063;-56
2022/12/30 08:06:51;;;;;;;1.83;1.40;;;8.90;99.90;;;;;;5084693;28;20032;-57
2022/12/30 08:09:17;;;;;;;1.52;1.40;;;8.90;99.90;;;;;;5084481;28;20032;-56
2022/12/30 08:11:42;;;;;;;3.28;1.58;;;8.90;99.90;;;;;;5085913;28;20028;-56
2022/12/30 08:14:08;;;;;;;2.08;1.52;;;8.90;99.90;;;;;;5085866;28;20041;-56
2022/12/30 08:16:33;;;;;;;1.42;1.27;;;8.90;99.90;;;;;;5084079;28;20025;-56
2022/12/30 08:18:59;;;;;;;3.70;1.67;;;8.90;99.90;;;;;;5085552;28;20058;-56
2022/12/30 08:21:24;;;;;;;3.35;1.45;;;8.90;99.90;;;;;;5084186;28;20040;-56
2022/12/30 08:23:50;;;;;;;4.45;1.70;;;8.90;99.90;;;;;;5084060;28;20390;-56
2022/12/30 08:26:21;;;;;;;2.40;1.27;;;8.90;99.90;;;;;;5085744;28;20512;-56
2022/12/30 08:28:46;;;;;;;3.22;1.70;;;8.90;99.90;;;;;;5067559;28;20033;-56
2022/12/30 08:31:23;;;;;;;4.47;1.60;;;8.90;99.90;;;;;;5085412;28;20174;-56
2022/12/30 08:33:48;;;;;;;2.50;1.60;;;8.90;99.90;;;;;;5084014;28;20024;-56
2022/12/30 08:36:15;;;;;;;2.78;1.50;;;9.00;99.90;;;;;;5084004;28;20077;-56
2022/12/30 08:38:43;;;;;;;6.60;1.80;;;9.00;99.90;;;;;;5083811;28;20032;-56
2022/12/30 08:41:29;;;;;;;5.07;2.22;;;9.00;99.90;;;;;;5083766;28;20032;-56
2022/12/30 08:43:54;;;;;;;;;;;9.00;99.90;;;;;;5083893;28;20041;-56
2022/12/30 08:46:20;;;;;;;;;;;9.00;99.90;;;;;;5084391;28;20256;-57
2022/12/30 08:48:45;;;;;;;8.77;1.90;;;8.90;99.90;;;;;;5083689;28;19966;-56
2022/12/30 08:51:11;;;;;;;9.95;2.03;;;9.00;99.90;;;;;;5083569;28;20025;-56
2022/12/30 08:53:37;;;;;;;20.88;2.80;;;8.90;99.90;;;;;;5083466;28;20126;-56
2022/12/30 08:56:07;;;;;;;20.25;2.47;;;9.00;99.90;;;;;;5083566;28;20139;-56
2022/12/30 08:58:33;;;;;;;16.52;2.45;;;9.00;99.90;;;;;;5083669;28;20028;-56
2022/12/30 09:00:59;;;;;;;17.92;2.72;;;9.00;99.90;;;;;;5083466;28;20024;-56
2022/12/30 09:03:25;;;;;;;16.85;3.15;;;9.00;99.90;;;;;;5084068;28;20037;-57
2022/12/30 09:05:53;;;;;;;15.68;2.83;;;9.00;99.90;;;;;;5083450;28;20368;-56
2022/12/30 09:08:19;;;;;;;19.17;3.33;;;9.00;99.90;;;;;;5083278;28;20036;-56
2022/12/30 09:10:54;;;;;;;23.85;3.63;;;9.00;99.90;;;;;;5083773;28;20028;-56
2022/12/30 09:13:20;;;;;;;43.92;5.60;;;9.00;99.90;;;;;;5083365;28;20041;-56
2022/12/30 09:15:45;;;;;;;24.40;3.67;;;9.10;99.90;;;;;;5083176;28;20518;-56
2022/12/30 09:18:11;;;;;;;34.33;4.95;;;9.10;99.90;;;;;;5084508;28;20033;-56
2022/12/30 09:20:36;;;;;;;46.92;6.50;;;9.10;99.90;;;;;;5066277;28;20066;-56
2022/12/30 09:23:02;;;;;;;61.80;6.95;;;9.10;99.90;;;;;;5084387;28;20103;-56
2022/12/30 09:25:27;;;;;;;58.97;7.13;;;9.10;99.90;;;;;;5084303;28;20024;-56
2022/12/30 09:27:53;;;;;;;60.50;6.32;;;9.10;99.90;;;;;;5084228;28;20108;-56
2022/12/30 09:30:18;;;;;;;61.33;6.80;;;9.20;99.90;;;;;;5083097;28;20368;-56
2022/12/30 09:32:44;;;;;;;54.22;8.15;;;9.20;99.90;;;;;;5084564;28;20063;-56
2022/12/30 09:35:09;;;;;;;60.58;8.35;;;9.20;99.90;;;;;;5083081;28;20098;-56
2022/12/30 09:37:35;;;;;;;75.53;9.15;;;9.20;99.90;;;;;;5083002;28;20038;-56
2022/12/30 09:40:01;;;;;;;85.00;9.27;;;9.20;99.90;;;;;;5084710;28;20197;-56
2022/12/30 09:45:26;;;;;;;84.72;10.20;;;9.30;99.90;;;;;;5083166;28;20043;-56
2022/12/30 09:47:53;;;;;;;169.35;18.23;;;9.30;99.90;;;;;;5083465;28;20024;-56
2022/12/30 09:50:23;;;;;;;96.82;10.82;;;9.30;99.90;;;;;;5066630;28;20044;-56
2022/12/30 09:53:09;;;;;;;104.50;10.90;;;9.30;99.90;;;;;;5082884;28;20032;-56
2022/12/30 09:55:43;;;;;;;113.25;12.77;;;9.30;99.90;;;;;;5082867;28;20036;-56
2022/12/30 09:58:11;;;;;;;133.60;13.77;;;9.40;99.90;;;;;;5083540;28;20085;-56
2022/12/30 10:00:37;;;;;;;149.75;15.30;;;9.40;99.90;;;;;;5082836;28;20052;-56
2022/12/30 10:03:20;;;;;;;139.88;15.40;;;9.40;99.90;;;;;;5082735;28;20040;-56
2022/12/30 10:06:04;;;;;;;150.60;15.02;;;9.50;99.90;;;;;;5083936;28;20024;-56
2022/12/30 10:08:54;;;;;;;136.80;15.32;;;9.50;99.90;;;;;;5082477;28;20128;-57
2022/12/30 10:12:02;;;;;;;170.18;18.45;;;9.50;99.90;;;;;;5082660;28;20357;-56
2022/12/30 10:14:41;;;;;;;158.85;17.63;;;9.50;99.90;;;;;;5073137;28;20048;-56
2022/12/30 10:17:17;;;;;;;211.40;21.15;;;9.60;99.90;;;;;;5082616;28;20024;-56
2022/12/30 10:20:05;;;;;;;143.25;16.92;;;9.60;99.90;;;;;;5082321;28;20033;-56
2022/12/30 10:22:33;;;;;;;188.93;18.52;;;9.60;99.90;;;;;;5075976;28;20028;-56
2022/12/30 10:25:19;;;;;;;195.07;21.33;;;9.60;99.90;;;;;;5086115;28;20100;-56
2022/12/30 10:27:49;;;;;;;241.60;24.40;;;9.60;99.90;;;;;;5086286;28;20029;-56
2022/12/30 10:30:16;;;;;;;243.25;24.63;;;9.70;99.90;;;;;;5086270;28;20049;-56
2022/12/30 10:32:52;;;;;;;218.50;22.85;;;9.70;99.90;;;;;;5087442;28;20048;-56
2022/12/30 10:35:23;;;;;;;241.75;24.98;;;9.80;99.90;;;;;;5086229;28;20025;-56
2022/12/30 10:37:50;;;;;;;230.75;26.08;;;9.80;99.90;;;;;;5086069;28;20027;-56
2022/12/30 10:40:15;;;;;;;268.33;26.83;;;9.90;99.90;;;;;;5085952;28;20036;-56
2022/12/30 10:42:57;;;;;;;264.60;28.83;;;9.90;99.90;;;;;;5085671;28;20104;-57
2022/12/30 10:45:36;;;;;;;256.52;29.85;;;9.90;99.90;;;;;;5085674;28;20036;-57
2022/12/30 10:48:20;;;;;;;260.35;29.27;;;10.00;99.90;;;;;;5085889;28;20072;-56
2022/12/30 10:50:47;;;;;;;276.58;30.40;;;10.00;99.90;;;;;;5087100;28;20021;-56
2022/12/30 10:53:22;;;;;;;252.45;28.30;;;10.10;99.90;;;;;;5085755;28;20074;-56
2022/12/30 10:55:50;;;;;;;241.70;27.60;;;10.10;99.90;;;;;;5086015;28;20439;-56
2022/12/30 10:58:26;;;;;;;261.83;28.40;;;10.10;99.90;;;;;;5085667;28;20491;-57
2022/12/30 11:00:53;;;;;;;293.52;32.00;;;10.10;99.90;;;;;;5085487;28;20115;-56
2022/12/30 11:03:31;;;;;;;283.30;28.45;;;10.10;99.90;;;;;;5086080;28;20096;-57
2022/12/30 11:06:15;;;;;;;297.25;32.17;;;10.20;99.90;;;;;;5086142;28;20033;-56
2022/12/30 11:08:41;;;;;;;290.17;29.17;;;10.20;99.90;;;;;;5071658;28;20088;-56
2022/12/30 11:11:07;;;;;;;270.88;30.02;;;10.30;99.90;;;;;;5068805;28;20031;-56
2022/12/30 11:16:27;;;;;;;250.25;29.50;;;10.30;99.90;;;;;;5086968;28;20114;-56
2022/12/30 11:18:54;;;;;;;282.15;31.73;;;10.30;99.90;;;;;;5085166;28;20158;-56
2022/12/30 11:21:27;;;;;;;344.58;35.42;;;10.40;99.90;;;;;;5085635;28;20017;-56
2022/12/30 11:23:54;;;;;;;275.25;33.03;;;10.40;99.90;;;;;;5085538;28;20032;-56
2022/12/30 11:26:21;;;;;;;301.50;32.28;;;10.40;99.90;;;;;;5085150;28;20419;-56
2022/12/30 11:28:58;;;;;;;293.55;30.02;;;10.40;99.90;;;;;;5085201;28;20396;-56
2022/12/30 11:31:40;;;;;;;292.17;32.00;;;10.50;99.90;;;;;;5084497;28;20519;-57
2022/12/30 11:34:05;;;;;;;271.35;28.80;;;10.50;99.90;;;;;;5084830;28;20035;-56
2022/12/30 11:36:35;;;;;;;298.67;30.02;;;10.60;99.90;;;;;;5086493;28;20397;-56
2022/12/30 11:39:05;;;;;;;258.50;31.88;;;10.60;99.90;;;;;;5084977;28;20048;-56
2022/12/30 11:41:31;;;;;;;288.63;28.20;;;10.60;99.90;;;;;;5084351;28;20021;-56
2022/12/30 11:43:59;;;;;;;253.45;28.98;;;10.60;99.90;;;;;;5084508;28;20044;-56
2022/12/30 11:46:46;;;;;;;242.43;27.80;;;10.70;99.90;;;;;;5086306;28;20044;-56
2022/12/30 11:49:29;;;;;;;233.32;24.65;;;10.60;99.90;;;;;;5084798;28;20052;-56
2022/12/30 11:51:56;;;;;;;189.40;24.02;;;10.70;99.90;;;;;;5084566;28;20056;-56
2022/12/30 11:54:27;;;;;;;331.77;34.70;;;10.70;99.90;;;;;;5084481;28;20047;-56
2022/12/30 11:57:27;;;;;;;289.55;30.65;;;10.70;99.90;;;;;;5084554;28;20073;-56
2022/12/30 11:59:58;;;;;;;190.93;24.80;;;10.70;99.90;;;;;;5084710;28;20052;-56
2022/12/30 12:02:31;;;;;;;227.02;26.20;;;10.70;99.90;;;;;;5084662;28;20051;-56
2022/12/30 12:04:58;;;;;;;203.82;22.33;;;10.80;99.90;;;;;;5086168;28;20052;-56
2022/12/30 12:07:26;;;;;;;200.68;22.92;;;10.80;99.90;;;;;;5084550;28;20341;-56
2022/12/30 12:10:01;;;;;;;213.40;24.45;;;10.80;99.90;;;;;;5084449;28;20064;-56
2022/12/30 12:12:29;;;;;;;169.75;21.20;;;10.80;99.90;;;;;;5085131;28;20039;-57
2022/12/30 12:15:15;;;;;;;167.02;20.55;;;10.80;99.90;;;;;;5084471;28;20025;-56
2022/12/30 12:18:03;;;;;;;187.52;20.88;;;10.90;99.90;;;;;;5083919;28;20151;-56
2022/12/30 12:20:54;;;;;;;296.27;25.38;;;10.90;99.90;;;;;;5084196;28;20040;-56
2022/12/30 12:23:39;;;;;;;159.32;18.65;;;10.90;99.90;;;;;;5084054;28;20117;-56
2022/12/30 12:26:18;;;;;;;163.40;21.15;;;10.90;99.90;;;;;;5084238;28;20028;-56
2022/12/30 12:28:44;;;;;;;194.48;21.80;;;10.90;99.90;;;;;;5084197;28;20036;-55
2022/12/30 12:31:26;;;;;;;181.25;20.13;;;11.00;99.90;;;;;;5067774;28;20029;-56
2022/12/30 12:33:55;;;;;;;211.55;22.25;;;11.00;99.90;;;;;;5085029;28;20044;-56
2022/12/30 12:36:36;;;;;;;190.15;21.55;;;11.00;99.90;;;;;;5085306;28;20029;-56
2022/12/30 12:39:09;;;;;;;185.13;20.70;;;11.00;99.90;;;;;;5077749;28;20032;-56
2022/12/30 12:41:54;;;;;;;161.23;19.92;;;11.00;99.90;;;;;;5082320;28;20056;-56
2022/12/30 12:44:29;;;;;;;143.10;18.08;;;11.00;99.90;;;;;;5082549;28;20098;-56
2022/12/30 12:47:00;;;;;;;158.38;18.58;;;11.10;99.90;;;;;;5094912;28;20040;-56
2022/12/30 12:49:33;;;;;;;161.05;21.67;;;11.10;99.90;;;;;;5079232;28;20056;-56
2022/12/30 12:52:36;;;;;;;175.13;19.27;;;11.10;99.90;;;;;;5096750;28;20075;-56
2022/12/30 12:55:21;;;;;;;162.27;18.80;;;11.10;99.90;;;;;;5051594;28;20044;-56
2022/12/30 12:57:59;;;;;;;210.68;21.48;;;11.10;99.90;;;;;;5096044;28;20032;-56
2022/12/30 13:00:28;;;;;;;210.15;21.17;;;11.10;99.90;;;;;;5084179;28;20460;-56
2022/12/30 13:03:14;;;;;;;208.77;21.75;;;11.10;99.90;;;;;;5083067;28;20078;-56
2022/12/30 13:05:58;;;;;;;180.27;20.58;;;11.20;99.90;;;;;;5080120;28;20111;-56
2022/12/30 13:09:00;;;;;;;177.07;20.38;;;11.20;99.90;;;;;;5068218;28;20028;-56
2022/12/30 13:11:55;;;;;;;241.20;24.42;;;11.20;99.90;;;;;;5061053;28;20107;-56
2022/12/30 13:14:35;;;;;;;181.38;22.50;;;11.30;99.90;;;;;;5067119;28;20042;-56
2022/12/30 13:17:02;;;;;;;196.73;23.00;;;11.30;99.90;;;;;;5097748;28;20595;-60
2022/12/30 13:19:33;;;;;;;212.52;23.80;;;11.30;99.90;;;;;;5082981;28;20036;-59
2022/12/30 13:22:00;;;;;;;227.65;24.27;;;11.30;99.90;;;;;;5065865;28;20032;-59
2022/12/30 13:24:38;;;;;;;206.85;23.15;;;11.40;99.90;;;;;;5082385;28;20036;-60
2022/12/30 13:27:05;;;;;;;232.02;22.92;;;11.40;99.90;;;;;;5077563;28;20048;-60
2022/12/30 13:29:36;;;;;;;223.02;23.67;;;11.40;99.90;;;;;;5079800;28;20037;-60
2022/12/30 13:32:10;;;;;;;236.35;24.13;;;11.40;99.90;;;;;;5082061;28;20044;-59
2022/12/30 13:34:38;;;;;;;216.63;23.15;;;11.40;99.90;;;;;;5097058;28;20033;-59
2022/12/30 13:37:12;;;;;;;259.05;25.55;;;11.40;99.90;;;;;;5093481;28;20097;-59
2022/12/30 13:39:45;;;;;;;212.38;25.40;;;11.40;99.90;;;;;;5097181;28;20021;-60
2022/12/30 13:42:44;;;;;;;278.27;27.52;;;11.50;99.90;;;;;;5066997;28;20137;-59
2022/12/30 13:45:22;;;;;;;269.25;28.38;;;11.20;99.90;;;;;;5081773;28;20040;-60
2022/12/30 13:47:48;;;;;;;286.67;30.23;;;11.50;99.90;;;;;;5081809;28;20029;-60
2022/12/30 13:50:20;;;;;;;346.00;35.15;;;11.50;99.90;;;;;;5083116;28;20048;-60
2022/12/30 13:52:47;;;;;;;461.85;42.45;;;11.50;99.90;;;;;;5083215;28;20040;-60